Orbital elements of COSMOS 970 DEB
| Launched | 20 December 1977 |
| Flight ended | – |
| Launch site | Tyuratam Missile and Space Center, Kazakhstan (Also known as Baikonur Cosmodrome) |
| Owner | Commonwealth of Independent States (former USSR) |
| NORAD ID | 10882 |
| Date fetched |
Epoch osculation |
Inc. [°] |
Ecc. | RA asc node [hr] |
Arg Peri. [°] |
Mean anom [°] |
Mean motion [rev/day] |
Abs. mag |
| Date fetched |
Epoch osculation |
Inc. [°] |
Ecc. | RA asc node [hr] |
Arg Peri. [°] |
Mean anom [°] |
Mean motion [rev/day] |
Abs. mag |
| 2026 May 03 17:57 | 2026 Apr 30 11:34:08 | 65.8222 | 0.01276 | 10.0141 | 150.2111 | 210.6296 | 13.77463 | – |
| 2026 May 02 17:57 | 2026 Apr 30 11:34:08 | 65.8222 | 0.01276 | 10.0141 | 150.2111 | 210.6296 | 13.77463 | – |
| 2026 May 01 17:56 | 2026 Apr 30 11:34:08 | 65.8222 | 0.01276 | 10.0141 | 150.2111 | 210.6296 | 13.77463 | – |
| 2026 Apr 30 17:56 | 2026 Apr 30 11:34:08 | 65.8222 | 0.01276 | 10.0141 | 150.2111 | 210.6296 | 13.77463 | – |
| 2026 Apr 29 17:57 | 2026 Apr 24 12:40:58 | 65.8229 | 0.01281 | 10.9994 | 153.2019 | 210.6296 | 13.77463 | – |
| 2026 Apr 28 17:56 | 2026 Apr 24 12:40:58 | 65.8229 | 0.01281 | 10.9994 | 153.2019 | 210.6296 | 13.77463 | – |
| 2026 Apr 27 17:58 | 2026 Apr 24 12:40:58 | 65.8229 | 0.01281 | 10.9994 | 153.2019 | 210.6296 | 13.77463 | – |
| 2026 Apr 26 17:58 | 2026 Apr 24 12:40:58 | 65.8229 | 0.01281 | 10.9994 | 153.2019 | 210.6296 | 13.77463 | – |
| 2026 Apr 25 17:58 | 2026 Apr 24 12:40:58 | 65.8229 | 0.01281 | 10.9994 | 153.2019 | 210.6296 | 13.77463 | – |
| 2026 Apr 24 17:59 | 2026 Apr 24 12:40:58 | 65.8229 | 0.01281 | 10.9994 | 153.2019 | 210.6296 | 13.77463 | – |
| 2026 Apr 23 17:57 | 2026 Apr 19 05:28:44 | 65.8237 | 0.01287 | 11.8765 | 155.8362 | 210.6296 | 13.77463 | – |
| 2026 Apr 22 17:57 | 2026 Apr 19 05:28:44 | 65.8237 | 0.01287 | 11.8765 | 155.8362 | 210.6296 | 13.77463 | – |
| 2026 Apr 21 17:57 | 2026 Apr 19 05:28:44 | 65.8237 | 0.01287 | 11.8765 | 155.8362 | 210.6296 | 13.77463 | – |
| 2026 Apr 20 17:57 | 2026 Apr 19 05:28:44 | 65.8237 | 0.01287 | 11.8765 | 155.8362 | 210.6296 | 13.77463 | – |
| 2026 Apr 19 17:58 | 2026 Apr 19 05:28:44 | 65.8237 | 0.01287 | 11.8765 | 155.8362 | 210.6296 | 13.77463 | – |
| 2026 Apr 18 17:56 | 2026 Apr 12 23:37:19 | 65.8241 | 0.01293 | 12.9098 | 158.9070 | 210.6296 | 13.77463 | – |
| 2026 Apr 16 17:57 | 2026 Apr 12 23:37:19 | 65.8241 | 0.01293 | 12.9098 | 158.9070 | 210.6296 | 13.77463 | – |
| 2026 Apr 14 17:57 | 2026 Apr 12 23:37:19 | 65.8241 | 0.01293 | 12.9098 | 158.9070 | 210.6296 | 13.77463 | – |
| 2026 Apr 13 17:57 | 2026 Apr 12 23:37:19 | 65.8241 | 0.01293 | 12.9098 | 158.9070 | 210.6296 | 13.77463 | – |
| 2026 Apr 12 17:57 | 2026 Apr 08 13:19:41 | 65.8241 | 0.01297 | 13.6427 | 161.0690 | 210.6296 | 13.77463 | – |
| 2026 Apr 11 17:57 | 2026 Apr 08 13:19:41 | 65.8241 | 0.01297 | 13.6427 | 161.0690 | 210.6296 | 13.77463 | – |
| 2026 Apr 10 17:58 | 2026 Apr 08 13:19:41 | 65.8241 | 0.01297 | 13.6427 | 161.0690 | 210.6296 | 13.77463 | – |
| 2026 Apr 09 18:01 | 2026 Apr 08 13:19:41 | 65.8241 | 0.01297 | 13.6427 | 161.0690 | 210.6296 | 13.77463 | – |
| 2026 Apr 08 17:57 | 2026 Apr 08 13:19:41 | 65.8241 | 0.01297 | 13.6427 | 161.0690 | 210.6296 | 13.77463 | – |
| 2026 Apr 07 17:57 | 2026 Apr 01 10:33:35 | 65.8237 | 0.01303 | 14.8202 | 164.5287 | 210.6296 | 13.77463 | – |
| 2026 Apr 06 17:57 | 2026 Apr 01 10:33:35 | 65.8237 | 0.01303 | 14.8202 | 164.5287 | 210.6296 | 13.77463 | – |